createdAt,value
2019-02-25T00:00:53.354Z,100262.60
2019-02-25T00:03:22.623Z,100265.60
2019-02-25T00:05:51.892Z,100265.48
2019-02-25T00:08:21.199Z,100264.58
2019-02-25T00:10:50.449Z,100262.72
2019-02-25T00:13:19.698Z,100260.87
2019-02-25T00:15:48.987Z,100261.17
2019-02-25T00:18:18.244Z,100257.84
2019-02-25T00:20:47.494Z,100257.39
2019-02-25T00:23:16.772Z,100257.28
2019-02-25T00:25:46.021Z,100260.20
2019-02-25T00:28:15.347Z,100253.89
2019-02-25T00:30:44.629Z,100269.23
2019-02-25T00:33:13.966Z,100260.34
2019-02-25T00:35:43.251Z,100262.03
2019-02-25T00:38:12.589Z,100265.34
2019-02-25T00:40:42.280Z,100270.20
2019-02-25T00:43:11.547Z,100274.83
2019-02-25T00:45:40.796Z,100275.00
2019-02-25T00:48:10.072Z,100282.84
2019-02-25T00:50:39.324Z,100278.44
2019-02-25T00:53:08.593Z,100280.55
2019-02-25T00:55:37.884Z,100286.31
2019-02-25T00:58:07.162Z,100289.43
2019-02-25T01:00:36.451Z,100292.58
2019-02-25T01:03:06.903Z,100303.23
2019-02-25T01:05:36.180Z,100303.98
2019-02-25T01:08:07.708Z,100300.05
2019-02-25T01:10:36.919Z,100301.45
2019-02-25T01:13:06.529Z,100309.06
2019-02-25T01:15:35.800Z,100306.00
2019-02-25T01:18:05.086Z,100308.39
2019-02-25T01:20:34.341Z,100304.09
2019-02-25T01:23:03.650Z,100301.80
2019-02-25T01:25:32.928Z,100296.69
2019-02-25T01:28:02.165Z,100300.32
2019-02-25T01:30:31.440Z,100300.78
2019-02-25T01:33:00.706Z,100297.86
2019-02-25T01:35:29.969Z,100308.52
2019-02-25T01:37:59.279Z,100306.62
2019-02-25T01:40:28.545Z,100301.98
2019-02-25T01:42:57.838Z,100296.30
2019-02-25T01:45:27.082Z,100299.27
2019-02-25T01:47:56.331Z,100296.52
2019-02-25T01:50:25.613Z,100299.36
2019-02-25T01:52:54.858Z,100298.63
2019-02-25T01:55:24.160Z,100297.72
2019-02-25T01:57:53.427Z,100293.78
2019-02-25T02:00:22.688Z,100303.37
2019-02-25T02:02:51.956Z,100295.56
2019-02-25T02:05:21.215Z,100290.18
2019-02-25T02:07:50.525Z,100291.73
2019-02-25T02:10:19.768Z,100286.28
2019-02-25T02:12:49.023Z,100281.45
2019-02-25T02:15:18.463Z,100275.84
2019-02-25T02:17:47.676Z,100284.66
2019-02-25T02:20:17.306Z,100284.35
2019-02-25T02:22:46.581Z,100276.72
2019-02-25T02:25:15.857Z,100275.19
2019-02-25T02:27:45.130Z,100277.87
2019-02-25T02:30:16.799Z,100282.27
2019-02-25T02:32:47.458Z,100277.13
2019-02-25T02:35:16.814Z,100279.88
2019-02-25T02:37:46.189Z,100281.52
2019-02-25T02:40:15.597Z,100281.31
2019-02-25T02:42:47.723Z,100279.49
2019-02-25T02:45:40.791Z,100271.52
2019-02-25T02:48:29.232Z,100269.88
2019-02-25T02:50:58.479Z,100266.90
2019-02-25T02:53:27.743Z,100258.08
2019-02-25T02:55:57.016Z,100263.98
2019-02-25T02:58:26.298Z,100260.66
2019-02-25T03:00:55.589Z,100263.67
2019-02-25T03:03:24.843Z,100266.58
2019-02-25T03:05:54.117Z,100265.01
2019-02-25T03:08:23.354Z,100253.13
2019-02-25T03:10:52.609Z,100248.91
2019-02-25T03:13:21.875Z,100254.40
2019-02-25T03:15:51.124Z,100254.76
2019-02-25T03:18:20.413Z,100244.99
2019-02-25T03:20:49.687Z,100243.20
2019-02-25T03:23:18.921Z,100247.84
2019-02-25T03:25:48.196Z,100248.95
2019-02-25T03:28:17.483Z,100246.34
2019-02-25T03:30:46.758Z,100252.21
2019-02-25T03:33:16.038Z,100248.75
2019-02-25T03:35:45.331Z,100252.82
2019-02-25T03:38:14.612Z,100257.30
2019-02-25T03:40:43.867Z,100260.29
2019-02-25T03:43:14.374Z,100261.89
2019-02-25T03:45:43.628Z,100262.72
2019-02-25T03:48:12.876Z,100265.25
2019-02-25T03:50:42.191Z,100264.81
2019-02-25T03:53:11.439Z,100256.07
2019-02-25T03:55:40.726Z,100253.13
2019-02-25T03:58:09.997Z,100251.44
2019-02-25T04:00:39.294Z,100247.00
2019-02-25T04:03:08.561Z,100256.25
2019-02-25T04:05:37.809Z,100250.57
2019-02-25T04:08:07.305Z,100259.63
2019-02-25T04:10:36.586Z,100261.87
2019-02-25T04:13:05.843Z,100261.32
2019-02-25T04:15:41.613Z,100258.64
2019-02-25T04:18:10.873Z,100254.55
2019-02-25T04:20:40.154Z,100263.14
2019-02-25T04:23:09.406Z,100264.76
2019-02-25T04:25:38.705Z,100267.79
2019-02-25T04:28:08.003Z,100264.21
2019-02-25T04:30:37.263Z,100256.75
2019-02-25T04:33:06.565Z,100261.52
2019-02-25T04:35:35.800Z,100264.06
2019-02-25T04:38:05.269Z,100273.45
2019-02-25T04:40:34.522Z,100277.05
2019-02-25T04:43:03.771Z,100282.68
2019-02-25T04:45:34.920Z,100282.41
2019-02-25T04:48:04.188Z,100281.81
2019-02-25T04:50:33.468Z,100276.97
2019-02-25T04:53:02.772Z,100281.22
2019-02-25T04:55:32.049Z,100285.40
2019-02-25T04:58:01.328Z,100293.72
2019-02-25T05:00:30.574Z,100288.53
2019-02-25T05:02:59.848Z,100287.48
2019-02-25T05:05:29.099Z,100292.08
2019-02-25T05:07:58.349Z,100275.63
2019-02-25T05:10:27.636Z,100277.94
2019-02-25T05:13:01.266Z,100268.86
2019-02-25T05:15:30.878Z,100265.45
2019-02-25T05:18:00.138Z,100255.02
2019-02-25T05:20:29.419Z,100259.13
2019-02-25T05:22:58.674Z,100262.77
2019-02-25T05:25:27.961Z,100256.21
2019-02-25T05:27:57.213Z,100257.86
2019-02-25T05:30:26.466Z,100262.17
2019-02-25T05:32:55.747Z,100254.87
2019-02-25T05:35:25.066Z,100251.88
2019-02-25T05:37:54.350Z,100251.28
2019-02-25T05:40:23.639Z,100246.07
2019-02-25T05:42:52.889Z,100249.50
2019-02-25T05:45:22.177Z,100247.70
2019-02-25T05:47:51.443Z,100250.39
2019-02-25T05:50:20.838Z,100248.61
2019-02-25T05:52:50.169Z,100240.87
2019-02-25T05:55:19.410Z,100244.27
2019-02-25T05:57:48.710Z,100244.08
2019-02-25T06:00:21.333Z,100250.31
2019-02-25T06:02:50.588Z,100249.05
2019-02-25T06:05:19.868Z,100251.73
2019-02-25T06:07:49.125Z,100256.50
2019-02-25T06:10:19.822Z,100259.34
2019-02-25T06:12:49.393Z,100264.85
2019-02-25T06:15:19.306Z,100255.16
2019-02-25T06:17:48.946Z,100260.70
2019-02-25T06:20:20.409Z,100263.67
2019-02-25T06:22:50.302Z,100269.78
2019-02-25T06:25:19.961Z,100272.90
2019-02-25T06:27:49.497Z,100274.84
2019-02-25T06:30:19.054Z,100274.77
2019-02-25T06:32:48.816Z,100275.59
2019-02-25T06:35:18.664Z,100282.47
2019-02-25T06:37:48.308Z,100285.38
2019-02-25T06:40:19.785Z,100284.92
2019-02-25T06:42:49.461Z,100289.84
2019-02-25T06:45:19.611Z,100274.26
2019-02-25T06:47:49.088Z,100270.83
2019-02-25T06:50:18.958Z,100282.17
2019-02-25T06:52:48.532Z,100292.14
2019-02-25T06:55:18.917Z,100289.62
2019-02-25T06:57:48.233Z,100292.73
2019-02-25T07:00:18.421Z,100283.86
2019-02-25T07:02:47.738Z,100283.23
2019-02-25T07:05:45.239Z,100281.10
2019-02-25T07:08:18.364Z,100283.56
2019-02-25T07:11:06.550Z,100283.82
2019-02-25T07:14:03.981Z,100289.19
2019-02-25T07:16:52.175Z,100281.47
2019-02-25T07:19:40.428Z,100279.56
2019-02-25T07:22:28.593Z,100275.52
2019-02-25T07:25:19.676Z,100272.61
2019-02-25T07:28:01.719Z,100283.78
2019-02-25T07:30:38.649Z,100279.09
2019-02-25T07:33:26.858Z,100285.46
2019-02-25T07:36:13.750Z,100276.06
2019-02-25T07:39:01.940Z,100277.82
2019-02-25T07:41:49.617Z,100277.27
2019-02-25T07:44:33.844Z,100290.12
2019-02-25T07:47:26.203Z,100293.00
2019-02-25T07:50:13.005Z,100290.81
2019-02-25T07:53:00.389Z,100299.08
2019-02-25T07:56:02.101Z,100298.97
2019-02-25T07:58:56.503Z,100299.75
2019-02-25T08:01:46.710Z,100315.85
2019-02-25T08:04:35.260Z,100314.80
2019-02-25T08:07:35.458Z,100310.02
2019-02-25T08:10:24.543Z,100302.69
2019-02-25T08:13:03.946Z,100289.68
2019-02-25T08:15:58.632Z,100295.47
2019-02-25T08:18:39.190Z,100290.27
2019-02-25T08:21:47.187Z,100298.80
2019-02-25T08:24:33.876Z,100294.00
2019-02-25T08:27:31.037Z,100292.34
2019-02-25T08:30:23.177Z,100283.45
2019-02-25T08:33:14.212Z,100287.67
2019-02-25T08:37:07.409Z,100294.09
2019-02-25T08:40:04.088Z,100286.77
2019-02-25T08:42:40.373Z,100284.75
2019-02-25T08:45:24.743Z,100288.45
2019-02-25T08:48:12.961Z,100287.42
2019-02-25T08:50:42.233Z,100294.41
2019-02-25T08:53:11.518Z,100300.83
2019-02-25T08:55:40.799Z,100300.62
2019-02-25T08:58:10.073Z,100297.30
2019-02-25T09:00:39.390Z,100301.06
2019-02-25T09:03:08.640Z,100292.38
2019-02-25T09:05:37.912Z,100293.27
2019-02-25T09:08:07.197Z,100289.13
2019-02-25T09:10:36.475Z,100297.64
2019-02-25T09:13:05.774Z,100293.78
2019-02-25T09:15:35.061Z,100293.82
2019-02-25T09:18:02.637Z,100301.86
2019-02-25T09:20:31.902Z,100301.72
2019-02-25T09:23:01.159Z,100294.65
2019-02-25T09:25:30.757Z,100302.05
2019-02-25T09:28:00.017Z,100294.58
2019-02-25T09:30:29.302Z,100290.23
2019-02-25T09:32:58.581Z,100289.11
2019-02-25T09:35:27.871Z,100293.36
2019-02-25T09:37:57.141Z,100283.73
2019-02-25T09:40:26.491Z,100293.05
2019-02-25T09:42:55.753Z,100287.80
2019-02-25T09:45:25.038Z,100293.53
2019-02-25T09:47:54.328Z,100292.38
2019-02-25T09:50:23.600Z,100295.13
2019-02-25T09:52:52.900Z,100289.97
2019-02-25T09:55:23.634Z,100288.91
2019-02-25T09:57:53.083Z,100282.91
2019-02-25T10:00:22.796Z,100289.34
2019-02-25T10:02:52.102Z,100289.37
2019-02-25T10:05:22.484Z,100286.51
2019-02-25T10:07:51.770Z,100288.85
2019-02-25T10:10:21.075Z,100288.03
2019-02-25T10:12:50.352Z,100280.64
2019-02-25T10:15:19.683Z,100280.77
2019-02-25T10:17:48.964Z,100286.92
2019-02-25T10:20:18.246Z,100276.87
2019-02-25T10:22:47.531Z,100272.40
2019-02-25T10:25:16.862Z,100271.95
2019-02-25T10:27:46.307Z,100274.22
2019-02-25T10:30:15.634Z,100272.27
2019-02-25T10:32:44.932Z,100271.05
2019-02-25T10:35:14.231Z,100275.30
2019-02-25T10:37:43.883Z,100265.06
2019-02-25T10:40:15.527Z,100264.37
2019-02-25T10:42:44.836Z,100271.32
2019-02-25T10:45:17.049Z,100265.73
2019-02-25T10:47:46.695Z,100263.59
2019-02-25T10:50:20.235Z,100267.22
2019-02-25T10:52:49.689Z,100259.83
2019-02-25T10:55:44.451Z,100261.06
2019-02-25T10:58:11.950Z,100259.16
2019-02-25T11:00:42.133Z,100260.97
2019-02-25T11:03:12.868Z,100262.31
2019-02-25T11:05:43.327Z,100265.47
2019-02-25T11:08:14.956Z,100266.44
2019-02-25T11:10:49.057Z,100268.80
2019-02-25T11:13:19.393Z,100266.34
2019-02-25T11:15:48.654Z,100265.34
2019-02-25T11:18:20.299Z,100264.56
2019-02-25T11:20:49.135Z,100257.25
2019-02-25T11:23:19.449Z,100260.30
2019-02-25T11:25:49.189Z,100248.66
2019-02-25T11:28:25.427Z,100248.66
2019-02-25T11:30:51.398Z,100249.05
2019-02-25T11:33:22.776Z,100241.06
2019-02-25T11:35:51.557Z,100229.00
2019-02-25T11:38:20.883Z,100220.48
2019-02-25T11:40:50.255Z,100225.86
2019-02-25T11:43:21.564Z,100220.70
2019-02-25T11:45:50.569Z,100216.52
2019-02-25T11:48:19.886Z,100215.57
2019-02-25T11:50:49.156Z,100220.37
2019-02-25T11:53:18.444Z,100214.77
2019-02-25T11:55:47.752Z,100216.61
2019-02-25T11:58:17.011Z,100213.87
2019-02-25T12:00:47.777Z,100208.02
2019-02-25T12:03:17.043Z,100211.64
2019-02-25T12:05:46.350Z,100209.42
2019-02-25T12:08:15.633Z,100209.28
2019-02-25T12:10:44.884Z,100201.32
2019-02-25T12:13:14.178Z,100203.34
2019-02-25T12:15:43.457Z,100202.92
2019-02-25T12:18:12.756Z,100198.82
2019-02-25T12:20:42.011Z,100193.94
2019-02-25T12:23:11.293Z,100183.70
2019-02-25T12:25:40.549Z,100181.00
2019-02-25T12:28:09.825Z,100178.53
2019-02-25T12:30:39.104Z,100185.57
2019-02-25T12:33:08.361Z,100177.13
2019-02-25T12:35:37.668Z,100182.16
2019-02-25T12:38:06.939Z,100170.37
2019-02-25T12:40:36.231Z,100166.47
2019-02-25T12:43:05.498Z,100162.48
2019-02-25T12:45:34.825Z,100161.12
2019-02-25T12:48:04.119Z,100158.32
2019-02-25T12:50:33.380Z,100156.96
2019-02-25T12:53:02.694Z,100151.60
2019-02-25T12:55:32.014Z,100147.17
2019-02-25T12:58:02.418Z,100144.81
2019-02-25T13:00:31.673Z,100139.98
2019-02-25T13:03:00.953Z,100138.92
2019-02-25T13:05:30.256Z,100133.16
2019-02-25T13:07:59.507Z,100121.33
2019-02-25T13:10:28.783Z,100113.88
2019-02-25T13:12:58.054Z,100107.02
2019-02-25T13:15:27.339Z,100103.45
2019-02-25T13:17:56.627Z,100094.23
2019-02-25T13:20:26.890Z,100096.36
2019-02-25T13:22:56.190Z,100100.60
2019-02-25T13:25:25.505Z,100102.86
2019-02-25T13:27:56.444Z,100096.05
2019-02-25T13:30:25.779Z,100080.28
2019-02-25T13:32:55.083Z,100066.85
2019-02-25T13:35:24.441Z,100066.85
2019-02-25T13:37:53.760Z,100064.16
2019-02-25T13:40:23.073Z,100064.67
2019-02-25T13:42:52.642Z,100059.61
2019-02-25T13:45:22.034Z,100049.73
2019-02-25T13:47:51.359Z,100048.97
2019-02-25T13:50:20.684Z,100045.73
2019-02-25T13:52:49.992Z,100034.25
2019-02-25T13:55:19.299Z,100028.14
2019-02-25T13:57:48.578Z,100020.01
2019-02-25T14:00:19.656Z,100020.37
2019-02-25T14:02:49.265Z,100017.62
2019-02-25T14:05:18.593Z,100027.50
2019-02-25T14:07:47.876Z,100025.22
2019-02-25T14:10:17.196Z,100016.01
2019-02-25T14:12:47.032Z,100009.36
2019-02-25T14:15:17.217Z,100012.48
2019-02-25T14:17:46.594Z,100014.37
2019-02-25T14:20:17.561Z,100013.66
2019-02-25T14:22:46.850Z,100011.56
2019-02-25T14:25:19.761Z,100006.14
2019-02-25T14:27:49.293Z,100005.46
2019-02-25T14:30:21.162Z,100006.94
2019-02-25T14:32:53.074Z,100009.23
2019-02-25T14:35:28.162Z,100000.65
2019-02-25T14:37:59.090Z,100002.11
2019-02-25T14:40:29.832Z,99998.09
2019-02-25T14:42:59.839Z,99998.20
2019-02-25T14:45:31.648Z,99980.07
2019-02-25T14:48:03.199Z,99991.81
2019-02-25T14:50:31.885Z,99989.65
2019-02-25T14:53:03.226Z,99994.09
2019-02-25T14:55:32.349Z,99988.53
2019-02-25T14:58:04.480Z,99989.59
2019-02-25T15:00:35.052Z,99988.00
2019-02-25T15:03:03.587Z,99987.40
2019-02-25T15:05:32.870Z,99981.66
2019-02-25T15:08:02.403Z,99986.29
2019-02-25T15:10:33.825Z,99988.69
2019-02-25T15:13:04.003Z,99980.88
2019-02-25T15:15:34.793Z,99973.42
2019-02-25T15:18:04.531Z,99960.73
2019-02-25T15:20:34.168Z,99969.28
2019-02-25T15:23:04.117Z,99955.71
2019-02-25T15:25:35.808Z,99955.91
2019-02-25T15:28:07.132Z,99953.77
2019-02-25T15:30:35.592Z,99956.08
2019-02-25T15:33:04.905Z,99955.46
2019-02-25T15:35:36.618Z,99960.03
2019-02-25T15:38:05.375Z,99960.61
2019-02-25T15:40:34.652Z,99965.13
2019-02-25T15:43:15.069Z,99960.13
2019-02-25T15:45:43.220Z,99953.81
2019-02-25T15:48:20.494Z,99957.95
2019-02-25T15:50:54.849Z,99961.63
2019-02-25T15:53:23.998Z,99966.64
2019-02-25T15:55:56.917Z,99967.25
2019-02-25T15:58:24.292Z,99963.22
2019-02-25T16:00:53.545Z,99966.85
2019-02-25T16:03:23.231Z,99969.59
2019-02-25T16:05:57.183Z,99960.58
2019-02-25T16:08:26.087Z,99964.78
2019-02-25T16:10:57.819Z,99964.90
2019-02-25T16:13:26.912Z,99968.12
2019-02-25T16:15:56.184Z,99976.74
2019-02-25T16:18:27.841Z,99970.45
2019-02-25T16:20:57.577Z,99982.02
2019-02-25T16:23:30.181Z,99980.41
2019-02-25T16:25:59.022Z,99982.52
2019-02-25T16:28:28.964Z,99979.59
2019-02-25T16:30:58.790Z,99984.09
2019-02-25T16:33:28.305Z,99986.73
2019-02-25T16:35:59.148Z,99989.37
2019-02-25T16:38:31.943Z,99990.16
2019-02-25T16:41:03.679Z,99991.59
2019-02-25T16:43:32.630Z,99983.50
2019-02-25T16:46:04.299Z,99990.55
2019-02-25T16:48:32.922Z,99983.56
2019-02-25T16:51:02.732Z,99986.59
2019-02-25T16:53:36.932Z,99977.25
2019-02-25T16:56:05.695Z,99983.03
2019-02-25T16:58:36.453Z,99979.05
2019-02-25T17:01:07.939Z,99982.12
2019-02-25T17:03:39.123Z,99981.88
2019-02-25T17:06:09.226Z,99987.34
2019-02-25T17:08:39.125Z,99993.06
2019-02-25T17:11:08.371Z,99990.44
2019-02-25T17:13:39.728Z,99996.27
2019-02-25T17:16:17.904Z,99994.03
2019-02-25T17:18:39.901Z,99998.72
2019-02-25T17:21:10.296Z,100000.39
2019-02-25T17:23:39.556Z,99998.62
2019-02-25T17:26:10.588Z,99998.89
2019-02-25T17:28:39.823Z,100001.82
2019-02-25T17:31:11.350Z,99997.52
2019-02-25T17:33:41.202Z,99997.78
2019-02-25T17:36:12.406Z,100002.13
2019-02-25T17:38:43.221Z,99994.41
2019-02-25T17:41:13.273Z,99991.50
2019-02-25T17:43:43.088Z,99978.14
2019-02-25T17:46:14.012Z,99983.86
2019-02-25T17:48:43.473Z,99990.81
2019-02-25T17:51:16.225Z,99993.36
2019-02-25T17:53:46.522Z,99995.38
2019-02-25T17:56:18.121Z,99990.95
2019-02-25T17:58:47.654Z,99997.31
2019-02-25T18:01:19.128Z,100000.08
2019-02-25T18:03:48.275Z,100001.88
2019-02-25T18:06:17.663Z,100004.20
2019-02-25T18:08:47.070Z,100003.71
2019-02-25T18:11:18.410Z,100009.42
2019-02-25T18:13:48.931Z,100006.44
2019-02-25T18:16:19.010Z,100003.55
2019-02-25T18:18:50.715Z,100001.99
2019-02-25T18:21:19.488Z,100006.67
2019-02-25T18:23:49.388Z,100004.56
2019-02-25T18:26:19.851Z,100006.57
2019-02-25T18:28:50.319Z,100004.16
2019-02-25T18:31:20.110Z,100002.02
2019-02-25T18:33:51.104Z,99999.39
2019-02-25T18:36:21.835Z,100005.80
2019-02-25T18:38:52.715Z,100009.25
2019-02-25T18:41:23.165Z,100003.10
2019-02-25T18:43:53.614Z,99998.28
2019-02-25T18:46:23.419Z,100000.41
2019-02-25T18:48:53.953Z,100000.05
2019-02-25T18:51:24.649Z,100000.01
2019-02-25T18:53:54.977Z,99997.95
2019-02-25T18:56:25.414Z,99994.94
2019-02-25T18:59:07.385Z,100004.66
2019-02-25T19:01:25.927Z,100002.53
2019-02-25T19:03:56.900Z,100006.59
2019-02-25T19:06:26.284Z,100010.68
2019-02-25T19:08:56.591Z,100008.31
2019-02-25T19:11:28.255Z,100004.38
2019-02-25T19:14:01.837Z,100001.12
2019-02-25T19:16:28.794Z,100004.38
2019-02-25T19:18:58.085Z,100011.40
2019-02-25T19:21:29.342Z,100014.55
2019-02-25T19:23:58.398Z,100022.23
2019-02-25T19:26:27.822Z,100017.70
2019-02-25T19:28:58.654Z,100013.48
2019-02-25T19:31:28.268Z,100022.27
2019-02-25T19:34:00.559Z,100019.28
2019-02-25T19:36:32.576Z,100013.56
2019-02-25T19:39:04.952Z,100017.83
2019-02-25T19:41:32.630Z,100025.41
2019-02-25T19:44:04.151Z,100021.02
2019-02-25T19:46:32.971Z,100030.03
2019-02-25T19:49:02.276Z,100023.50
2019-02-25T19:51:31.570Z,100023.22
2019-02-25T19:54:02.614Z,100018.03
2019-02-25T19:56:31.889Z,100017.23
2019-02-25T19:59:03.234Z,100017.52
2019-02-25T20:01:32.244Z,100012.63
2019-02-25T20:04:04.393Z,100010.27
2019-02-25T20:06:32.549Z,100019.03
2019-02-25T20:09:01.829Z,100015.78
2019-02-25T20:11:31.090Z,100015.51
2019-02-25T20:14:01.544Z,100010.36
2019-02-25T20:16:32.297Z,100018.03
2019-02-25T20:19:02.566Z,100018.84
2019-02-25T20:21:32.850Z,100025.38
2019-02-25T20:24:02.233Z,100010.16
2019-02-25T20:26:32.697Z,100013.95
2019-02-25T20:29:03.987Z,100016.69
2019-02-25T20:31:33.112Z,100016.21
2019-02-25T20:34:02.400Z,100017.89
2019-02-25T20:36:32.682Z,100019.80
2019-02-25T20:39:02.275Z,100018.75
2019-02-25T20:41:32.714Z,100017.36
2019-02-25T20:44:03.272Z,100015.22
2019-02-25T20:46:34.845Z,100010.88
2019-02-25T20:49:05.662Z,100010.34
2019-02-25T20:51:36.166Z,100004.91
2019-02-25T20:54:05.560Z,100010.61
2019-02-25T20:56:34.960Z,100006.54
2019-02-25T20:59:06.148Z,100005.73
2019-02-25T21:01:39.499Z,100004.44
2019-02-25T21:04:08.808Z,100003.32
2019-02-25T21:06:39.598Z,100004.95
2019-02-25T21:09:10.996Z,100000.91
2019-02-25T21:11:40.443Z,100004.42
2019-02-25T21:14:09.721Z,100003.33
2019-02-25T21:16:39.036Z,100008.21
2019-02-25T21:19:10.246Z,99999.27
2019-02-25T21:21:39.740Z,100005.48
2019-02-25T21:24:11.257Z,100014.15
2019-02-25T21:26:40.970Z,100013.34
2019-02-25T21:29:10.369Z,100012.81
2019-02-25T21:31:42.712Z,100015.79
2019-02-25T21:34:15.284Z,100017.16
2019-02-25T21:36:42.050Z,100022.30
2019-02-25T21:39:14.658Z,100010.63
2019-02-25T21:41:45.722Z,100018.50
2019-02-25T21:44:18.853Z,100027.70
2019-02-25T21:46:49.574Z,100034.20
2019-02-25T21:49:20.231Z,100033.67
2019-02-25T21:51:52.419Z,100027.45
2019-02-25T21:54:23.848Z,100024.98
2019-02-25T21:56:55.436Z,100021.72
2019-02-25T21:59:27.083Z,100025.52
2019-02-25T22:01:59.424Z,100029.59
2019-02-25T22:04:32.520Z,100021.72
2019-02-25T22:07:04.037Z,100020.08
2019-02-25T22:09:41.409Z,100025.48
2019-02-25T22:12:10.169Z,100026.03
2019-02-25T22:14:43.452Z,100029.27
2019-02-25T22:17:19.529Z,100021.18
2019-02-25T22:19:48.116Z,100030.05
2019-02-25T22:22:24.170Z,100028.14
2019-02-25T22:24:53.001Z,100018.14
2019-02-25T22:27:24.601Z,100016.47
2019-02-25T22:29:57.966Z,100024.78
2019-02-25T22:32:31.334Z,100023.75
2019-02-25T22:35:05.059Z,100024.13
2019-02-25T22:37:36.637Z,100028.02
2019-02-25T22:40:10.135Z,100020.87
2019-02-25T22:42:41.170Z,100019.28
2019-02-25T22:45:14.212Z,100008.61
2019-02-25T22:47:44.571Z,100015.38
2019-02-25T22:50:15.345Z,100015.85
2019-02-25T22:52:46.363Z,100010.02
2019-02-25T22:55:22.166Z,100004.30
2019-02-25T22:57:53.437Z,100003.80
2019-02-25T23:00:30.503Z,100000.25
2019-02-25T23:03:00.030Z,100006.92
2019-02-25T23:05:30.213Z,100005.27
2019-02-25T23:07:59.729Z,100016.27
2019-02-25T23:10:29.006Z,100016.27
2019-02-25T23:12:58.302Z,100018.80
2019-02-25T23:15:30.319Z,100015.09
2019-02-25T23:18:05.265Z,100023.03
2019-02-25T23:20:31.805Z,100029.22
2019-02-25T23:23:06.107Z,100020.89
2019-02-25T23:25:33.163Z,100023.95
2019-02-25T23:28:02.481Z,100025.86
2019-02-25T23:30:31.751Z,100028.05
2019-02-25T23:33:01.031Z,100031.52
2019-02-25T23:35:30.271Z,100028.72
2019-02-25T23:38:00.984Z,100016.61
2019-02-25T23:40:33.260Z,100017.13
2019-02-25T23:43:03.228Z,100017.17
2019-02-25T23:45:32.294Z,100012.84
2019-02-25T23:48:02.293Z,100015.89
2019-02-25T23:50:33.959Z,100012.86
2019-02-25T23:53:03.583Z,100010.29
2019-02-25T23:55:32.864Z,100006.24
2019-02-25T23:58:02.116Z,100003.54
